Airfield :
LOGIN :

Register | Disclaimer

   EN    FR    IT 

 










Legend :    VFR   Marginal VFR   IFR   Intensive IFR   Very Intensive IFR
Visi :
Ceiling :
>= 8 km
>= 3000ft
5 to 8 km
1000 to 3000 ft
1500m to 5 km
500 to 1000 ft
800 to 1500m
200 to 500 ft
< 800m
< 200 ft
Symbols :   Thunderstorms  Fog  Heavy snow  Heavy precipitations  Wind > 20 kt
SIGMETs :     Misc.  Thunderstorms  Icing  Turbulence  Mountain Waves  Volcanic Ashes






- Airport Elevation : 28 ft
- IATA code : SOZ


LFKS - Solenzara

CURRENT METAR :
  • 100400Z AUTO 29004KT CAVOK 08/02 Q1009

EXPIRED METARs :
  • 100330Z AUTO 27005KT CAVOK 08/02 Q1009
  • 100300Z AUTO 26004KT CAVOK 08/02 Q1008
  • 100230Z AUTO 27004KT 240V300 CAVOK 09/02 Q1008
  • 100200Z AUTO 28005KT CAVOK 09/02 Q1008
  • 100130Z AUTO 28005KT 240V310 CAVOK 09/03 Q1008

TAF TAF LFKS
Valid from the 09 at 15:00 until the 10 at 15:00 UTC


091400Z 0915/1015 27012KT 9999 SCT080 SCT230
TEMPO 0915/0918 27020G35KT
BECMG 0918/0920 CAVOK
BECMG 1006/1008 36010KT
TEMPO 1009/1015 36020G30KT



MET'MAP, your aeronautical weather chart ! - Copyright ORBIFLY December 2007 - Disclaimer

ORBIFLY MET'MAP TEAM :

Programming & Development : Alexandra Zaïnal
Concept & original design : Baudouin d'Aumeries
Assistance for programming : Marc-Olivier Méhu
Technical & hardware support : Manuel Goepfert

Contact : metmap@orbifly.com




SOURCES & CREDITS :

   NOAA